createdAt,value
2018-03-28T00:01:51.314Z,11.00
2018-03-28T00:04:20.519Z,9.80
2018-03-28T00:06:49.734Z,13.20
2018-03-28T00:09:18.941Z,11.33
2018-03-28T00:11:48.981Z,10.90
2018-03-28T00:14:18.938Z,10.30
2018-03-28T00:16:48.130Z,11.67
2018-03-28T00:19:17.332Z,11.13
2018-03-28T00:21:46.577Z,11.03
2018-03-28T00:24:16.531Z,12.37
2018-03-28T00:26:45.770Z,11.30
2018-03-28T00:29:14.967Z,9.57
2018-03-28T00:31:44.958Z,10.03
2018-03-28T00:34:14.180Z,10.37
2018-03-28T00:36:43.377Z,10.87
2018-03-28T00:39:12.610Z,11.00
2018-03-28T00:41:41.905Z,11.87
2018-03-28T00:44:11.074Z,9.87
2018-03-28T00:46:40.274Z,12.63
2018-03-28T00:49:09.491Z,11.47
2018-03-28T00:51:39.534Z,9.13
2018-03-28T00:54:08.828Z,10.23
2018-03-28T00:56:38.915Z,10.37
2018-03-28T00:59:08.924Z,10.73
2018-03-28T01:01:38.122Z,11.13
2018-03-28T01:04:08.094Z,12.60
2018-03-28T01:06:37.340Z,10.50
2018-03-28T01:09:07.325Z,11.10
2018-03-28T01:11:36.558Z,11.40
2018-03-28T01:14:06.518Z,10.87
2018-03-28T01:16:35.881Z,9.70
2018-03-28T01:19:05.874Z,8.73
2018-03-28T01:21:35.101Z,7.50
2018-03-28T01:24:04.375Z,9.63
2018-03-28T01:26:33.857Z,8.17
2018-03-28T01:29:03.054Z,9.23
2018-03-28T01:31:32.259Z,9.57
2018-03-28T01:34:01.473Z,9.40
2018-03-28T01:36:31.462Z,9.33
2018-03-28T01:39:00.679Z,8.67
2018-03-28T01:41:29.971Z,9.70
2018-03-28T01:43:59.169Z,9.90
2018-03-28T01:46:28.359Z,8.80
2018-03-28T01:48:57.613Z,9.07
2018-03-28T01:51:27.114Z,10.83
2018-03-28T01:53:56.301Z,10.53
2018-03-28T01:56:25.551Z,10.73
2018-03-28T01:58:54.927Z,11.57
2018-03-28T02:01:24.121Z,10.90
2018-03-28T02:03:53.550Z,12.83
2018-03-28T02:06:22.747Z,16.70
2018-03-28T02:08:51.956Z,14.47
2018-03-28T02:11:21.458Z,14.10
2018-03-28T02:13:50.642Z,14.70
2018-03-28T02:16:19.843Z,15.17
2018-03-28T02:18:49.046Z,15.50
2018-03-28T02:21:19.931Z,13.27
2018-03-28T02:23:49.170Z,14.33
2018-03-28T02:26:18.372Z,17.77
2018-03-28T02:28:47.608Z,22.30
2018-03-28T02:31:17.619Z,19.43
2018-03-28T02:33:47.619Z,22.03
2018-03-28T02:36:16.817Z,19.03
2018-03-28T02:38:46.072Z,20.97
2018-03-28T02:41:15.311Z,37.10
2018-03-28T02:43:45.550Z,29.13
2018-03-28T02:46:14.747Z,30.43
2018-03-28T02:48:44.742Z,29.90
2018-03-28T02:51:14.728Z,31.53
2018-03-28T02:53:43.978Z,35.50
2018-03-28T02:56:13.955Z,40.53
2018-03-28T02:58:43.143Z,44.03
2018-03-28T03:01:12.353Z,38.30
2018-03-28T03:03:41.579Z,48.70
2018-03-28T03:06:10.801Z,48.37
2018-03-28T03:08:40.016Z,55.70
2018-03-28T03:11:09.235Z,49.33
2018-03-28T03:13:38.414Z,46.90
2018-03-28T03:16:07.713Z,60.47
2018-03-28T03:18:36.923Z,58.57
2018-03-28T03:21:06.106Z,59.13
2018-03-28T03:23:35.331Z,56.17
2018-03-28T03:26:04.522Z,60.47
2018-03-28T03:28:33.723Z,60.63
2018-03-28T03:31:02.930Z,62.57
2018-03-28T03:33:32.134Z,67.13
2018-03-28T03:36:01.351Z,58.17
2018-03-28T03:38:31.330Z,71.40
2018-03-28T03:41:00.540Z,76.73
2018-03-28T03:43:29.772Z,69.87
2018-03-28T03:45:59.838Z,85.93
2018-03-28T03:48:29.064Z,73.63
2018-03-28T03:50:58.271Z,86.97
2018-03-28T03:53:27.495Z,88.00
2018-03-28T03:55:56.743Z,88.50
2018-03-28T03:58:25.998Z,93.10
2018-03-28T04:00:55.242Z,84.27
2018-03-28T04:03:24.442Z,92.27
2018-03-28T04:05:53.661Z,104.43
2018-03-28T04:08:23.779Z,95.73
2018-03-28T04:10:53.754Z,100.97
2018-03-28T04:13:23.267Z,108.80
2018-03-28T04:15:52.516Z,93.97
2018-03-28T04:18:21.747Z,93.47
2018-03-28T04:20:50.946Z,89.20
2018-03-28T04:23:20.219Z,90.83
2018-03-28T04:25:50.258Z,94.30
2018-03-28T04:28:19.434Z,85.90
2018-03-28T04:30:48.646Z,81.93
2018-03-28T04:33:17.952Z,81.50
2018-03-28T04:35:47.186Z,80.73
2018-03-28T04:38:16.599Z,76.50
2018-03-28T04:40:45.822Z,73.40
2018-03-28T04:43:15.787Z,79.03
2018-03-28T04:45:45.012Z,84.47
2018-03-28T04:48:14.244Z,74.50
2018-03-28T04:50:43.459Z,83.60
2018-03-28T04:53:12.654Z,72.97
2018-03-28T04:55:41.898Z,67.03
2018-03-28T04:58:11.878Z,80.90
2018-03-28T05:00:41.825Z,72.30
2018-03-28T05:03:11.046Z,72.13
2018-03-28T05:05:41.043Z,64.60
2018-03-28T05:08:10.257Z,69.30
2018-03-28T05:10:40.250Z,66.83
2018-03-28T05:13:09.447Z,68.10
2018-03-28T05:15:38.659Z,79.50
2018-03-28T05:18:08.651Z,73.87
2018-03-28T05:20:37.951Z,82.17
2018-03-28T05:23:07.174Z,71.67
2018-03-28T05:25:37.134Z,79.87
2018-03-28T05:28:06.371Z,68.40
2018-03-28T05:30:35.851Z,77.23
2018-03-28T05:33:05.830Z,84.00
2018-03-28T05:35:35.092Z,89.50
2018-03-28T05:38:05.068Z,82.37
2018-03-28T05:40:35.035Z,81.47
2018-03-28T05:43:05.011Z,85.67
2018-03-28T05:45:34.213Z,97.47
2018-03-28T05:48:03.438Z,96.20
2018-03-28T05:50:33.410Z,95.23
2018-03-28T05:53:02.599Z,106.10
2018-03-28T05:55:31.919Z,103.90
2018-03-28T05:58:01.124Z,99.20
2018-03-28T06:00:30.315Z,99.27
2018-03-28T06:02:59.535Z,102.97
2018-03-28T06:05:28.763Z,89.87
2018-03-28T06:07:58.436Z,99.50
2018-03-28T06:10:28.441Z,90.20
2018-03-28T06:12:57.651Z,86.67
2018-03-28T06:15:26.878Z,91.80
2018-03-28T06:17:57.081Z,88.30
2018-03-28T06:20:27.062Z,94.33
2018-03-28T06:22:56.253Z,86.53
2018-03-28T06:25:25.493Z,81.10
2018-03-28T06:27:54.657Z,90.40
2018-03-28T06:30:23.867Z,83.37
2018-03-28T06:32:53.065Z,85.17
2018-03-28T06:35:22.416Z,80.60
2018-03-28T06:37:51.638Z,84.50
2018-03-28T06:40:20.920Z,79.07
2018-03-28T06:42:50.857Z,79.27
2018-03-28T06:45:20.879Z,82.93
2018-03-28T06:47:50.066Z,78.60
2018-03-28T06:56:32.207Z,82.07
2018-03-28T06:59:01.429Z,86.70
2018-03-28T07:01:30.711Z,74.27
2018-03-28T07:03:59.953Z,69.87
2018-03-28T07:06:29.953Z,66.57
2018-03-28T07:08:59.937Z,67.07
2018-03-28T07:11:29.168Z,58.10
2018-03-28T07:13:59.160Z,53.67
2018-03-28T07:16:28.383Z,60.53
2018-03-28T07:18:57.587Z,70.10
2018-03-28T07:21:27.619Z,67.23
2018-03-28T07:23:57.590Z,76.27
2018-03-28T07:26:26.808Z,81.07
2018-03-28T07:28:56.793Z,79.70
2018-03-28T07:31:26.045Z,78.63
2018-03-28T07:33:55.261Z,74.70
2018-03-28T07:36:24.479Z,69.17
2018-03-28T07:38:53.717Z,79.03
2018-03-28T07:41:23.764Z,75.73
2018-03-28T07:43:53.024Z,74.80
2018-03-28T07:46:23.107Z,74.97
2018-03-28T07:48:52.356Z,67.43
2018-03-28T07:51:22.339Z,73.37
2018-03-28T07:53:51.568Z,69.67
2018-03-28T07:56:21.542Z,71.00
2018-03-28T07:58:50.775Z,59.53
2018-03-28T08:01:20.764Z,56.50
2018-03-28T08:03:50.182Z,65.30
2018-03-28T08:06:20.186Z,62.80
2018-03-28T08:08:49.399Z,56.00
2018-03-28T08:11:18.627Z,57.43
2018-03-28T08:13:47.840Z,55.80
2018-03-28T08:16:17.050Z,61.90
2018-03-28T08:18:46.333Z,54.77
2018-03-28T08:21:15.538Z,64.40
2018-03-28T08:23:44.745Z,67.57
2018-03-28T08:26:13.948Z,64.00
2018-03-28T08:28:43.207Z,62.20
2018-03-28T08:31:12.420Z,59.70
2018-03-28T08:33:41.644Z,61.37
2018-03-28T08:36:10.878Z,65.80
2018-03-28T08:38:40.858Z,63.27
2018-03-28T08:41:10.147Z,60.33
2018-03-28T08:43:39.341Z,64.83
2018-03-28T08:46:08.652Z,54.33
2018-03-28T08:48:37.859Z,69.20
2018-03-28T08:51:07.099Z,53.33
2018-03-28T08:53:36.339Z,58.50
2018-03-28T08:56:05.639Z,53.63
2018-03-28T08:58:34.825Z,52.90
2018-03-28T09:01:04.075Z,54.60
2018-03-28T09:03:33.325Z,53.13
2018-03-28T09:06:02.554Z,52.40
2018-03-28T09:08:31.761Z,54.43
2018-03-28T09:11:01.017Z,50.00
2018-03-28T09:13:31.002Z,56.37
2018-03-28T09:16:00.269Z,52.13
2018-03-28T09:18:30.291Z,47.20
2018-03-28T09:20:59.541Z,57.10
2018-03-28T09:23:28.745Z,57.20
2018-03-28T09:25:58.104Z,60.50
2018-03-28T09:28:27.351Z,58.53
2018-03-28T09:30:56.550Z,59.67
2018-03-28T09:33:26.551Z,58.57
2018-03-28T09:35:55.777Z,58.30
2018-03-28T09:38:25.062Z,59.13
2018-03-28T09:40:55.297Z,59.90
2018-03-28T09:43:24.572Z,54.77
2018-03-28T09:45:54.518Z,65.17
2018-03-28T09:48:23.767Z,55.70
2018-03-28T09:50:53.044Z,58.60
2018-03-28T09:53:22.375Z,51.33
2018-03-28T09:55:51.641Z,53.27
2018-03-28T09:58:20.847Z,52.60
2018-03-28T10:14:13.470Z,37.17
2018-03-28T10:16:42.688Z,42.47
2018-03-28T10:19:12.690Z,41.27
2018-03-28T10:21:42.693Z,40.20
2018-03-28T10:24:11.911Z,40.90
2018-03-28T10:26:41.140Z,42.90
2018-03-28T10:29:10.380Z,38.77
2018-03-28T10:31:39.611Z,36.17
2018-03-28T10:34:08.900Z,38.77
2018-03-28T10:36:38.865Z,40.30
2018-03-28T10:39:08.097Z,40.97
2018-03-28T10:44:44.619Z,38.90
2018-03-28T10:47:13.843Z,41.77
2018-03-28T10:49:43.170Z,41.37
2018-03-28T10:52:12.387Z,39.80
2018-03-28T10:54:42.389Z,48.60
2018-03-28T10:57:12.420Z,41.63
2018-03-28T10:59:42.625Z,49.03
2018-03-28T11:02:11.842Z,42.50
2018-03-28T11:04:41.871Z,44.57
2018-03-28T11:07:11.861Z,44.77
2018-03-28T11:09:41.064Z,43.27
2018-03-28T11:12:10.315Z,38.10
2018-03-28T11:14:39.563Z,34.13
2018-03-28T11:17:09.562Z,39.57
2018-03-28T11:19:38.784Z,39.13
2018-03-28T11:22:08.809Z,40.87
2018-03-28T11:24:38.775Z,40.47
2018-03-28T11:27:08.003Z,37.20
2018-03-28T11:29:38.052Z,37.53
2018-03-28T11:32:07.290Z,38.97
2018-03-28T11:34:36.618Z,40.17
2018-03-28T11:37:05.866Z,39.27
2018-03-28T11:39:35.077Z,40.87
2018-03-28T11:42:04.292Z,40.53
2018-03-28T11:44:34.341Z,44.77
2018-03-28T11:47:04.602Z,38.57
2018-03-28T11:49:33.797Z,40.47
2018-03-28T11:52:03.092Z,40.87
2018-03-28T11:54:33.089Z,39.50
2018-03-28T11:57:02.468Z,39.63
2018-03-28T11:59:32.546Z,40.93
2018-03-28T12:02:01.752Z,36.53
2018-03-28T12:04:31.005Z,39.13
2018-03-28T12:07:01.003Z,37.67
2018-03-28T12:09:30.994Z,37.27
2018-03-28T12:12:00.222Z,39.20
2018-03-28T12:14:29.467Z,40.30
2018-03-28T12:16:58.667Z,35.03
2018-03-28T12:19:27.894Z,35.53
2018-03-28T12:21:57.134Z,37.10
2018-03-28T12:24:26.354Z,35.30
2018-03-28T12:26:55.618Z,42.83
2018-03-28T12:29:25.625Z,38.70
2018-03-28T12:31:54.812Z,41.20
2018-03-28T12:34:24.818Z,44.80
2018-03-28T12:36:54.028Z,38.33
2018-03-28T12:39:24.032Z,31.57
2018-03-28T12:41:53.229Z,37.20
2018-03-28T12:44:22.450Z,37.57
2018-03-28T12:46:51.658Z,36.87
2018-03-28T12:49:21.750Z,36.97
2018-03-28T12:51:52.089Z,37.10
2018-03-28T12:54:22.055Z,36.07
2018-03-28T12:56:51.291Z,37.00
2018-03-28T12:59:21.279Z,37.77
2018-03-28T13:01:50.482Z,30.80
2018-03-28T13:04:19.743Z,38.07
2018-03-28T13:06:48.970Z,35.50
2018-03-28T13:09:18.198Z,34.80
2018-03-28T13:11:48.204Z,36.70
2018-03-28T13:14:17.445Z,32.20
2018-03-28T13:16:46.687Z,34.47
2018-03-28T13:19:15.972Z,35.37
2018-03-28T13:24:49.930Z,36.20
2018-03-28T13:27:19.162Z,37.70
2018-03-28T13:29:48.378Z,41.17
2018-03-28T13:32:17.637Z,42.23
2018-03-28T13:34:47.618Z,35.40
2018-03-28T13:37:16.874Z,31.13
2018-03-28T13:39:46.124Z,37.83
2018-03-28T13:42:15.389Z,36.60
2018-03-28T13:44:44.600Z,39.03
2018-03-28T13:47:13.840Z,38.23
2018-03-28T13:49:43.935Z,39.53
2018-03-28T13:52:13.160Z,40.43
2018-03-28T13:54:43.167Z,45.20
2018-03-28T13:57:13.159Z,37.47
2018-03-28T13:59:43.176Z,38.80
2018-03-28T14:02:12.390Z,41.50
2018-03-28T14:04:41.662Z,40.07
2018-03-28T14:07:10.900Z,37.90
2018-03-28T14:09:40.166Z,38.37
2018-03-28T14:12:09.363Z,40.17
2018-03-28T14:14:38.594Z,43.17
2018-03-28T14:17:08.570Z,39.63
2018-03-28T14:19:37.832Z,36.00
2018-03-28T14:22:07.063Z,39.97
2018-03-28T14:24:36.255Z,37.43
2018-03-28T14:27:05.851Z,32.30
2018-03-28T14:29:35.898Z,31.90
2018-03-28T14:35:08.732Z,32.63
2018-03-28T14:37:38.723Z,32.83
2018-03-28T14:40:07.926Z,34.13
2018-03-28T14:42:37.149Z,37.87
2018-03-28T14:45:07.126Z,37.30
2018-03-28T14:47:36.350Z,31.33
2018-03-28T14:50:05.529Z,27.10
2018-03-28T14:52:34.758Z,17.27
2018-03-28T14:55:04.011Z,13.43
2018-03-28T14:57:33.326Z,12.47
2018-03-28T15:00:02.569Z,14.00
2018-03-28T15:02:31.827Z,19.03
2018-03-28T15:05:01.076Z,15.50
2018-03-28T15:07:30.298Z,8.00
2018-03-28T15:09:59.485Z,7.87
2018-03-28T15:12:28.918Z,7.13
2018-03-28T15:14:58.119Z,8.83
2018-03-28T15:17:27.375Z,5.87
2018-03-28T15:19:56.569Z,5.73
2018-03-28T15:22:25.872Z,5.00
2018-03-28T15:24:55.063Z,5.00
2018-03-28T15:27:24.273Z,5.27
2018-03-28T15:29:53.478Z,3.80
2018-03-28T15:32:22.699Z,6.67
2018-03-28T15:34:51.889Z,8.20
2018-03-28T15:37:21.116Z,5.73
2018-03-28T15:39:50.299Z,5.37
2018-03-28T15:42:19.675Z,6.43
2018-03-28T15:44:48.883Z,3.87
2018-03-28T15:47:18.116Z,5.53
2018-03-28T15:49:48.205Z,3.87
2018-03-28T15:52:17.380Z,4.57
2018-03-28T15:54:46.647Z,5.90
2018-03-28T15:57:15.810Z,5.73
2018-03-28T15:59:45.294Z,5.27
2018-03-28T16:02:14.508Z,4.10
2018-03-28T16:04:44.470Z,3.73
2018-03-28T16:07:13.655Z,4.23
2018-03-28T16:09:42.875Z,4.80
2018-03-28T16:12:12.080Z,3.90
2018-03-28T16:14:41.278Z,8.00
2018-03-28T16:17:10.533Z,4.47
2018-03-28T16:19:39.740Z,6.93
2018-03-28T16:22:09.028Z,4.50
2018-03-28T16:24:38.291Z,5.10
2018-03-28T16:27:07.481Z,4.40
2018-03-28T16:29:36.724Z,4.67
2018-03-28T16:32:06.793Z,4.70
2018-03-28T16:34:40.817Z,4.20
2018-03-28T16:37:10.036Z,6.00
2018-03-28T16:39:40.011Z,6.83
2018-03-28T16:42:09.209Z,5.70
2018-03-28T16:44:38.398Z,5.70
2018-03-28T16:47:07.612Z,6.60
2018-03-28T16:49:36.861Z,5.13
2018-03-28T16:52:06.090Z,6.97
2018-03-28T16:54:36.527Z,6.80
2018-03-28T16:57:05.732Z,8.33
2018-03-28T16:59:34.970Z,5.33
2018-03-28T17:02:04.966Z,8.13
2018-03-28T17:04:34.209Z,5.80
2018-03-28T17:07:03.426Z,7.70
2018-03-28T17:09:32.764Z,9.30
2018-03-28T17:12:01.980Z,7.57
2018-03-28T17:14:31.985Z,6.50
2018-03-28T17:17:01.237Z,7.90
2018-03-28T17:19:30.451Z,7.43
2018-03-28T17:21:59.640Z,9.43
2018-03-28T17:24:28.919Z,9.07
2018-03-28T17:26:58.094Z,12.63
2018-03-28T17:29:27.335Z,8.80
2018-03-28T17:31:56.527Z,10.70
2018-03-28T17:34:25.730Z,11.03
2018-03-28T17:36:54.948Z,8.33
2018-03-28T17:39:24.160Z,13.13
2018-03-28T17:41:54.164Z,10.13
2018-03-28T17:44:24.241Z,7.87
2018-03-28T17:46:53.436Z,8.40
2018-03-28T17:49:22.627Z,8.70
2018-03-28T17:51:51.851Z,8.53
2018-03-28T17:54:21.052Z,9.93
2018-03-28T17:56:50.274Z,9.90
2018-03-28T17:59:19.467Z,8.40
2018-03-28T18:01:49.511Z,9.37
2018-03-28T18:04:18.722Z,8.17
2018-03-28T18:06:47.960Z,7.73
2018-03-28T18:09:17.413Z,8.17
2018-03-28T18:11:47.386Z,9.50
2018-03-28T18:14:16.578Z,8.53
2018-03-28T18:16:45.816Z,10.73
2018-03-28T18:19:14.988Z,9.30
2018-03-28T18:21:44.964Z,11.67
2018-03-28T18:24:14.179Z,8.37
2018-03-28T18:26:43.410Z,8.97
2018-03-28T18:29:13.418Z,7.93
2018-03-28T18:31:42.671Z,10.57
2018-03-28T18:34:11.898Z,11.13
2018-03-28T18:36:41.144Z,8.73
2018-03-28T18:39:10.354Z,8.10
2018-03-28T18:41:40.345Z,9.43
2018-03-28T18:44:09.539Z,13.03
2018-03-28T18:46:39.520Z,16.00
2018-03-28T18:49:08.742Z,4.10
2018-03-28T18:51:38.731Z,3.53
2018-03-28T18:54:07.926Z,2.37
2018-03-28T18:56:37.527Z,1.87
2018-03-28T18:59:06.905Z,2.40
2018-03-28T19:01:36.818Z,1.47
2018-03-28T19:04:06.024Z,3.60
2018-03-28T19:06:35.262Z,4.80
2018-03-28T19:09:04.479Z,5.80
2018-03-28T19:11:33.803Z,4.07
2018-03-28T19:14:03.254Z,3.57
2018-03-28T19:16:32.460Z,3.13
2018-03-28T19:19:03.356Z,4.80
2018-03-28T19:21:32.575Z,6.00
2018-03-28T19:24:01.793Z,5.20
2018-03-28T19:26:31.027Z,8.30
2018-03-28T19:29:00.263Z,3.00
2018-03-28T19:31:29.480Z,5.57
2018-03-28T19:33:58.777Z,6.40
2018-03-28T19:36:27.968Z,6.53
2018-03-28T19:51:57.220Z,14.20
2018-03-28T19:54:26.466Z,8.73
2018-03-28T19:56:55.684Z,9.03
2018-03-28T19:59:25.668Z,6.87
2018-03-28T20:01:54.931Z,5.60
2018-03-28T20:18:23.146Z,3.70
2018-03-28T20:20:53.117Z,5.50
2018-03-28T20:23:22.418Z,4.77
2018-03-28T20:25:51.637Z,6.50
2018-03-28T20:28:20.835Z,8.30
2018-03-28T20:30:50.075Z,11.07
2018-03-28T20:33:19.316Z,10.20
2018-03-28T20:35:48.531Z,11.30
2018-03-28T20:38:17.795Z,11.13
2018-03-28T20:40:47.012Z,13.33
2018-03-28T20:43:16.237Z,14.23
2018-03-28T20:45:45.447Z,14.00
2018-03-28T20:48:15.411Z,17.53
2018-03-28T20:50:44.624Z,18.40
2018-03-28T20:53:13.861Z,18.83
2018-03-28T20:55:43.851Z,20.53
2018-03-28T20:58:13.142Z,22.53
2018-03-28T21:00:42.408Z,25.23
2018-03-28T21:03:11.634Z,28.50
2018-03-28T21:05:40.849Z,27.47
2018-03-28T21:08:10.048Z,27.17
2018-03-28T21:10:39.348Z,26.10
2018-03-28T21:13:08.658Z,25.40
2018-03-28T21:15:38.630Z,41.73
2018-03-28T21:18:07.884Z,24.07
2018-03-28T21:20:37.842Z,24.50
2018-03-28T21:23:07.108Z,28.70
2018-03-28T21:25:37.092Z,19.20
2018-03-28T21:28:06.313Z,22.07
2018-03-28T21:30:36.525Z,21.83
2018-03-28T21:33:06.524Z,18.33
2018-03-28T21:35:35.739Z,18.00
2018-03-28T21:38:05.725Z,17.63
2018-03-28T21:40:34.947Z,17.83
2018-03-28T21:43:04.960Z,17.30
2018-03-28T21:45:34.964Z,17.20
2018-03-28T21:48:04.209Z,15.37
2018-03-28T21:50:33.603Z,13.73
2018-03-28T21:53:03.572Z,14.20
2018-03-28T21:55:32.819Z,13.50
2018-03-28T21:58:02.039Z,14.30
2018-03-28T22:00:31.251Z,14.00
2018-03-28T22:03:00.454Z,15.77
2018-03-28T22:05:30.436Z,19.90
2018-03-28T22:07:59.632Z,16.37
2018-03-28T22:10:28.845Z,17.53
2018-03-28T22:12:58.091Z,16.30
2018-03-28T22:15:28.093Z,13.20
2018-03-28T22:17:57.593Z,12.13
2018-03-28T22:20:26.838Z,11.00
2018-03-28T22:22:56.809Z,11.00
2018-03-28T22:25:26.056Z,15.00
2018-03-28T22:27:55.295Z,18.00
2018-03-28T22:30:25.258Z,20.80
2018-03-28T22:32:54.499Z,20.53
2018-03-28T22:35:23.701Z,18.33
2018-03-28T22:37:52.937Z,17.80
2018-03-28T22:40:22.974Z,16.40
2018-03-28T22:42:52.242Z,17.63
2018-03-28T22:45:21.449Z,18.23
2018-03-28T22:47:50.724Z,15.13
2018-03-28T22:50:19.976Z,16.23
2018-03-28T22:52:49.219Z,17.73
2018-03-28T22:55:18.447Z,16.00
2018-03-28T22:57:48.478Z,17.47
2018-03-28T23:00:18.599Z,15.20
2018-03-28T23:02:48.082Z,12.50
2018-03-28T23:05:18.082Z,12.70
2018-03-28T23:07:47.333Z,12.40
2018-03-28T23:10:16.554Z,11.80
2018-03-28T23:12:45.806Z,11.67
2018-03-28T23:15:15.072Z,10.37
2018-03-28T23:17:44.226Z,13.03
2018-03-28T23:20:13.479Z,11.80
2018-03-28T23:22:42.658Z,10.77
2018-03-28T23:25:11.897Z,10.70
2018-03-28T23:27:41.917Z,10.37
2018-03-28T23:30:11.123Z,8.70
2018-03-28T23:32:40.333Z,6.93
2018-03-28T23:35:09.569Z,8.30
2018-03-28T23:37:38.759Z,5.67
2018-03-28T23:40:07.975Z,8.53
2018-03-28T23:42:37.942Z,5.50
2018-03-28T23:45:07.429Z,6.70
2018-03-28T23:47:36.621Z,9.10
2018-03-28T23:50:05.870Z,9.87
2018-03-28T23:52:35.045Z,9.80
2018-03-28T23:55:04.335Z,11.57
2018-03-28T23:57:33.525Z,9.87
